X  Close Metar Aviation Weather Data     ENGM Oslo Airport, Gardermoen
Temperature
15°C Temperature
13°C Dewpoint
88% Humidity



Wind
6 M/S
13 MPH
21 KM/H
11 KTS



360°
North
Current Conditions

Rain Rain
Pressure 1005.76 (hPa) - 29.7 (inHg)
Visibility 3.1 (mile) - 5 (km)
Airport
Airport-code ENGM

Location: Oslo Airport, Gardermoen
Distance: 6 (km)

Metar:
ENGM 140950Z 36011KT 5000 RA FEW005 SCT022 BKN028 15/13 Q1006 TEMPO 4000 -RA

Time: 14-07-2024 09:50 CEST